Wetterdaten: Woche 13.03.17 - 19.03.17 (KW11)
Datum Zeit Temp. Aussen Temp. o. S. +5cm Feuchte Auss BlattFeu 1 Luftdruck Regen Sonnenschein Regendauer Solar Windben Empfang
13.03.2017 00:00 7,3 C 7,2 C 4,4 C 66 % 0 lf 1017,2 hPa 0,0 l/m 0,00 h 0,00 h 0 W/m 16,4 km/h (3 Bft) 93,03 %
13.03.2017 01:00 7,1 C 7,0 C 4,5 C 66 % 0 lf 1017,9 hPa 0,0 l/m 0,00 h 0,00 h 0 W/m 18,4 km/h (3 Bft) 95,30 %
13.03.2017 02:00 6,4 C 6,3 C 3,8 C 68 % 0 lf 1018,3 hPa 0,0 l/m 0,00 h 0,00 h 3 W/m 15,7 km/h (3 Bft) 96,87 %
13.03.2017 03:00 5,8 C 5,8 C 3,3 C 71 % 0 lf 1018,9 hPa 0,0 l/m 0,00 h 0,00 h 5 W/m 15,2 km/h (3 Bft) 94,94 %
13.03.2017 04:00 5,4 C 5,3 C 2,8 C 72 % 0 lf 1019,4 hPa 0,0 l/m 0,00 h 0,00 h 4 W/m 11,5 km/h (2 Bft) 98,27 %
13.03.2017 05:00 4,7 C 4,6 C 2,2 C 74 % 0 lf 1019,9 hPa 0,0 l/m 0,00 h 0,00 h 1 W/m 11,9 km/h (2 Bft) 94,87 %
13.03.2017 06:00 4,2 C 4,1 C 1,8 C 76 % 0 lf 1020,5 hPa 0,0 l/m 0,00 h 0,00 h 3 W/m 11,0 km/h (2 Bft) 94,17 %
13.03.2017 07:00 3,9 C 4,6 C 2,1 C 78 % 0 lf 1020,9 hPa 0,0 l/m 0,93 h 0,00 h 64 W/m 11,0 km/h (2 Bft) 97,00 %
13.03.2017 08:00 5,0 C 7,0 C 4,3 C 77 % 0 lf 1021,6 hPa 0,0 l/m 1,00 h 0,00 h 172 W/m 16,4 km/h (3 Bft) 96,65 %
13.03.2017 09:00 6,8 C 13,3 C 8,8 C 73 % 0 lf 1022,8 hPa 0,0 l/m 1,00 h 0,00 h 329 W/m 8,4 km/h (2 Bft) 93,52 %
13.03.2017 10:00 9,7 C 17,4 C 14,1 C 66 % 0 lf 1023,4 hPa 0,0 l/m 1,00 h 0,00 h 494 W/m 7,3 km/h (2 Bft) 97,08 %
13.03.2017 11:00 11,8 C 20,6 C 13,5 C 62 % 0 lf 1023,7 hPa 0,0 l/m 1,00 h 0,00 h 617 W/m 7,5 km/h (2 Bft) 95,09 %
13.03.2017 12:00 12,6 C 21,7 C 12,3 C 61 % 0 lf 1024,3 hPa 0,0 l/m 1,00 h 0,00 h 554 W/m 10,8 km/h (2 Bft) 96,04 %
13.03.2017 13:00 13,7 C 22,4 C 13,0 C 58 % 0 lf 1024,4 hPa 0,0 l/m 1,00 h 0,00 h 489 W/m 9,9 km/h (2 Bft) 96,01 %
13.03.2017 14:00 14,6 C 22,5 C 14,5 C 57 % 0 lf 1024,3 hPa 0,0 l/m 1,00 h 0,00 h 418 W/m 9,5 km/h (2 Bft) 95,66 %
13.03.2017 15:00 14,9 C 18,0 C 14,7 C 57 % 0 lf 1024,8 hPa 0,0 l/m 0,77 h 0,00 h 245 W/m 14,7 km/h (3 Bft) 96,30 %
13.03.2017 16:00 14,4 C 15,5 C 13,5 C 64 % 0 lf 1025,3 hPa 0,0 l/m 0,43 h 0,00 h 144 W/m 16,1 km/h (3 Bft) 94,73 %
13.03.2017 17:00 13,6 C 13,8 C 11,9 C 72 % 0 lf 1025,9 hPa 0,0 l/m 0,00 h 0,00 h 52 W/m 14,4 km/h (3 Bft) 96,01 %
13.03.2017 18:00 12,8 C 12,2 C 10,2 C 75 % 0 lf 1026,8 hPa 0,0 l/m 0,00 h 0,00 h 9 W/m 12,6 km/h (3 Bft) 95,88 %
13.03.2017 19:00 11,3 C 9,4 C 6,7 C 79 % 0 lf 1027,6 hPa 0,0 l/m 0,00 h 0,00 h 0 W/m 9,0 km/h (2 Bft) 95,87 %
13.03.2017 20:00 9,9 C 9,3 C 6,9 C 84 % 0 lf 1028,4 hPa 0,0 l/m 0,00 h 0,00 h 0 W/m 9,0 km/h (2 Bft) 95,87 %
13.03.2017 21:00 9,0 C 7,2 C 4,3 C 85 % 1 lf 1029,1 hPa 0,0 l/m 0,00 h 0,00 h 2 W/m 4,9 km/h (1 Bft) 95,27 %
13.03.2017 22:00 7,8 C 6,6 C 3,7 C 87 % 1 lf 1029,8 hPa 0,0 l/m 0,00 h 0,00 h 1 W/m 7,4 km/h (2 Bft) 96,45 %
13.03.2017 23:00 6,7 C 5,3 C 2,9 C 88 % 3 lf 1030,2 hPa 0,0 l/m 0,00 h 0,00 h 1 W/m 3,7 km/h (1 Bft) 95,39 %
14.03.2017 00:00 6,1 C 5,4 C 3,6 C 90 % 3 lf 1030,5 hPa 0,0 l/m 0,00 h 0,00 h 2 W/m 5,6 km/h (1 Bft) 97,54 %
14.03.2017 01:00 5,5 C 4,4 C 2,1 C 91 % 6 lf 1030,5 hPa 0,0 l/m 0,00 h 0,00 h 2 W/m 4,6 km/h (1 Bft) 93,43 %
14.03.2017 02:00 5,0 C 4,5 C 2,8 C 92 % 10 lf 1030,5 hPa 0,0 l/m 0,00 h 0,00 h 1 W/m 6,8 km/h (2 Bft) 94,89 %
14.03.2017 03:00 4,9 C 5,0 C 3,1 C 94 % 4 lf 1030,4 hPa 0,0 l/m 0,00 h 0,00 h 1 W/m 6,1 km/h (2 Bft) 97,06 %
14.03.2017 04:00 4,9 C 5,0 C 3,3 C 95 % 1 lf 1030,7 hPa 0,0 l/m 0,00 h 0,00 h 1 W/m 4,8 km/h (1 Bft) 96,58 %
14.03.2017 05:00 5,0 C 5,0 C 3,3 C 95 % 1 lf 1030,6 hPa 0,0 l/m 0,00 h 0,00 h 1 W/m 5,6 km/h (1 Bft) 94,17 %
14.03.2017 06:00 5,1 C 5,0 C 3,3 C 95 % 1 lf 1030,6 hPa 0,0 l/m 0,00 h 0,00 h 3 W/m 7,1 km/h (2 Bft) 96,77 %
14.03.2017 07:00 5,3 C 6,0 C 4,3 C 96 % 0 lf 1030,7 hPa 0,0 l/m 0,03 h 0,00 h 41 W/m 8,3 km/h (2 Bft) 95,62 %
14.03.2017 08:00 6,2 C 8,8 C 6,5 C 96 % 0 lf 1030,9 hPa 0,0 l/m 0,85 h 0,00 h 155 W/m 11,6 km/h (2 Bft) 95,79 %
14.03.2017 09:00 8,0 C 11,4 C 9,1 C 90 % 0 lf 1031,2 hPa 0,0 l/m 0,87 h 0,00 h 209 W/m 16,8 km/h (3 Bft) 97,13 %
14.03.2017 10:00 9,9 C 14,2 C 11,5 C 78 % 0 lf 1031,5 hPa 0,0 l/m 0,83 h 0,00 h 322 W/m 20,2 km/h (4 Bft) 93,43 %
14.03.2017 11:00 12,3 C 20,9 C 14,1 C 70 % 0 lf 1031,1 hPa 0,0 l/m 1,00 h 0,00 h 553 W/m 23,1 km/h (4 Bft) 96,82 %
14.03.2017 12:00 14,3 C 22,6 C 14,0 C 65 % 0 lf 1030,3 hPa 0,0 l/m 0,97 h 0,00 h 588 W/m 22,5 km/h (4 Bft) 97,34 %
14.03.2017 13:00 15,5 C 22,7 C 14,7 C 63 % 0 lf 1030,1 hPa 0,0 l/m 1,00 h 0,00 h 545 W/m 20,6 km/h (4 Bft) 93,15 %
14.03.2017 14:00 16,0 C 21,8 C 16,1 C 62 % 0 lf 1029,8 hPa 0,0 l/m 1,00 h 0,00 h 434 W/m 19,3 km/h (3 Bft) 96,70 %
14.03.2017 15:00 16,2 C 21,0 C 15,3 C 62 % 0 lf 1029,2 hPa 0,0 l/m 1,00 h 0,00 h 362 W/m 18,9 km/h (3 Bft) 97,03 %
14.03.2017 16:00 15,6 C 17,1 C 14,6 C 62 % 0 lf 1029,2 hPa 0,0 l/m 0,70 h 0,00 h 166 W/m 17,6 km/h (3 Bft) 93,86 %
14.03.2017 17:00 14,7 C 15,1 C 12,7 C 65 % 0 lf 1029,2 hPa 0,0 l/m 0,10 h 0,00 h 69 W/m 13,3 km/h (3 Bft) 97,41 %
14.03.2017 18:00 13,8 C 12,7 C 9,9 C 69 % 0 lf 1029,6 hPa 0,0 l/m 0,00 h 0,00 h 12 W/m 7,1 km/h (2 Bft) 94,87 %
14.03.2017 19:00 12,3 C 11,4 C 9,3 C 79 % 0 lf 1030,1 hPa 0,0 l/m 0,00 h 0,00 h 0 W/m 17,0 km/h (3 Bft) 95,13 %
14.03.2017 20:00 10,8 C 10,5 C 9,1 C 86 % 0 lf 1030,7 hPa 0,0 l/m 0,00 h 0,00 h 0 W/m 15,1 km/h (3 Bft) 97,15 %
14.03.2017 21:00 10,2 C 10,2 C 8,9 C 87 % 0 lf 1031,1 hPa 0,0 l/m 0,00 h 0,00 h 0 W/m 12,0 km/h (2 Bft) 96,95 %
14.03.2017 22:00 10,1 C 10,0 C 8,8 C 88 % 0 lf 1031,3 hPa 0,0 l/m 0,00 h 0,00 h 0 W/m 10,2 km/h (2 Bft) 91,80 %
14.03.2017 23:00 9,9 C 10,0 C 8,7 C 90 % 0 lf 1031,1 hPa 0,0 l/m 0,00 h 0,00 h 0 W/m 11,3 km/h (2 Bft) 98,15 %
15.03.2017 00:00 9,8 C 10,0 C 8,3 C 91 % 0 lf 1031,0 hPa 0,0 l/m 0,00 h 0,00 h 0 W/m 10,7 km/h (2 Bft) 96,66 %
15.03.2017 01:00 9,5 C 9,2 C 7,7 C 91 % 0 lf 1030,9 hPa 0,0 l/m 0,00 h 0,00 h 0 W/m 10,2 km/h (2 Bft) 93,97 %
15.03.2017 02:00 9,1 C 8,9 C 7,3 C 92 % 0 lf 1030,5 hPa 0,0 l/m 0,00 h 0,00 h 0 W/m 8,5 km/h (2 Bft) 96,40 %
15.03.2017 03:00 8,8 C 8,5 C 7,1 C 94 % 0 lf 1030,3 hPa 0,0 l/m 0,00 h 0,00 h 0 W/m 7,2 km/h (2 Bft) 95,60 %
15.03.2017 04:00 8,9 C 9,2 C 7,7 C 95 % 0 lf 1030,4 hPa 0,0 l/m 0,00 h 0,00 h 0 W/m 11,5 km/h (2 Bft) 96,27 %
15.03.2017 05:00 9,1 C 9,4 C 7,8 C 95 % 0 lf 1030,7 hPa 0,0 l/m 0,00 h 0,00 h 0 W/m 9,9 km/h (2 Bft) 95,35 %
15.03.2017 06:00 9,2 C 9,4 C 7,8 C 95 % 0 lf 1031,0 hPa 0,0 l/m 0,00 h 0,00 h 0 W/m 8,9 km/h (2 Bft) 94,11 %
15.03.2017 07:00 9,1 C 9,4 C 7,9 C 95 % 0 lf 1031,1 hPa 0,0 l/m 0,00 h 0,00 h 21 W/m 7,7 km/h (2 Bft) 95,51 %
15.03.2017 08:00 9,4 C 10,9 C 9,3 C 95 % 0 lf 1031,4 hPa 0,0 l/m 0,07 h 0,00 h 84 W/m 8,9 km/h (2 Bft) 98,00 %
15.03.2017 09:00 10,2 C 14,1 C 11,6 C 94 % 0 lf 1031,5 hPa 0,0 l/m 0,70 h 0,00 h 209 W/m 10,1 km/h (2 Bft) 93,22 %
15.03.2017 10:00 11,6 C 15,6 C 13,2 C 86 % 0 lf 1031,3 hPa 0,0 l/m 0,60 h 0,00 h 262 W/m 9,6 km/h (2 Bft) 96,53 %
15.03.2017 11:00 12,9 C 18,8 C 14,9 C 80 % 0 lf 1031,6 hPa 0,0 l/m 1,00 h 0,00 h 375 W/m 10,7 km/h (2 Bft) 97,31 %
15.03.2017 12:00 13,4 C 18,6 C 14,7 C 75 % 0 lf 1031,6 hPa 0,0 l/m 1,00 h 0,00 h 362 W/m 10,9 km/h (2 Bft) 94,44 %
15.03.2017 13:00 14,7 C 25,1 C 14,9 C 68 % 0 lf 1031,2 hPa 0,0 l/m 1,00 h 0,00 h 578 W/m 12,3 km/h (3 Bft) 95,77 %
15.03.2017 14:00 15,3 C 24,4 C 14,8 C 60 % 0 lf 1030,8 hPa 0,0 l/m 0,97 h 0,00 h 512 W/m 14,6 km/h (3 Bft) 97,01 %
15.03.2017 15:00 15,3 C 23,6 C 13,8 C 57 % 0 lf 1030,2 hPa 0,0 l/m 0,97 h 0,00 h 403 W/m 14,6 km/h (3 Bft) 94,69 %
15.03.2017 16:00 15,5 C 22,0 C 13,2 C 56 % 0 lf 1030,0 hPa 0,0 l/m 0,97 h 0,00 h 257 W/m 11,6 km/h (2 Bft) 97,13 %
15.03.2017 17:00 14,7 C 16,9 C 12,2 C 59 % 0 lf 1030,0 hPa 0,0 l/m 0,57 h 0,00 h 89 W/m 9,8 km/h (2 Bft) 96,16 %
15.03.2017 18:00 13,6 C 11,8 C 8,8 C 60 % 0 lf 1030,0 hPa 0,0 l/m 0,00 h 0,00 h 12 W/m 6,0 km/h (2 Bft) 96,15 %
15.03.2017 19:00 11,3 C 8,4 C 5,0 C 66 % 0 lf 1029,9 hPa 0,0 l/m 0,00 h 0,00 h 0 W/m 1,5 km/h (1 Bft) 95,23 %
15.03.2017 20:00 9,1 C 7,0 C 3,8 C 72 % 0 lf 1029,8 hPa 0,0 l/m 0,00 h 0,00 h 3 W/m 1,3 km/h (1 Bft) 95,83 %
15.03.2017 21:00 7,5 C 5,7 C 3,2 C 77 % 0 lf 1029,8 hPa 0,0 l/m 0,00 h 0,00 h 3 W/m 2,2 km/h (1 Bft) 95,86 %
15.03.2017 22:00 6,4 C 4,7 C 2,6 C 80 % 0 lf 1029,6 hPa 0,0 l/m 0,00 h 0,00 h 2 W/m 1,1 km/h (1 Bft) 95,54 %
15.03.2017 23:00 5,5 C 4,3 C 2,2 C 83 % 0 lf 1029,0 hPa 0,0 l/m 0,00 h 0,00 h 0 W/m 0,4 km/h (0 Bft) 94,60 %
16.03.2017 00:00 4,8 C 4,3 C 1,7 C 87 % 1 lf 1028,2 hPa 0,0 l/m 0,00 h 0,00 h 0 W/m 0,0 km/h (0 Bft) 94,45 %
16.03.2017 01:00 4,2 C 2,9 C 1,1 C 89 % 2 lf 1027,9 hPa 0,0 l/m 0,00 h 0,00 h 1 W/m 0,0 km/h (0 Bft) 98,41 %
16.03.2017 02:00 3,5 C 2,5 C 0,7 C 90 % 3 lf 1027,5 hPa 0,0 l/m 0,00 h 0,00 h 0 W/m 0,8 km/h (0 Bft) 95,52 %
16.03.2017 03:00 3,0 C 2,6 C 0,4 C 91 % 7 lf 1027,0 hPa 0,0 l/m 0,00 h 0,00 h 0 W/m 0,1 km/h (0 Bft) 94,37 %
16.03.2017 04:00 2,5 C 2,0 C 0,0 C 92 % 15 lf 1026,4 hPa 0,0 l/m 0,00 h 0,00 h 0 W/m 0,0 km/h (0 Bft) 96,37 %
16.03.2017 05:00 2,2 C 2,0 C -0,1 C 93 % 15 lf 1026,3 hPa 0,0 l/m 0,00 h 0,00 h 0 W/m 0,0 km/h (0 Bft) 96,16 %
16.03.2017 06:00 2,1 C 2,3 C -0,2 C 94 % 15 lf 1026,2 hPa 0,0 l/m 0,00 h 0,00 h 9 W/m 2,8 km/h (1 Bft) 95,89 %
16.03.2017 07:00 2,7 C 4,2 C 1,4 C 95 % 15 lf 1026,3 hPa 0,0 l/m 0,93 h 0,00 h 66 W/m 7,3 km/h (2 Bft) 94,50 %
16.03.2017 08:00 4,8 C 10,5 C 3,9 C 97 % 5 lf 1026,2 hPa 0,0 l/m 1,00 h 0,00 h 212 W/m 7,3 km/h (2 Bft) 91,08 %
16.03.2017 09:00 8,3 C 15,0 C 11,3 C 90 % 0 lf 1025,9 hPa 0,0 l/m 1,00 h 0,00 h 369 W/m 9,9 km/h (2 Bft) 96,51 %
16.03.2017 10:00 11,6 C 19,2 C 16,9 C 75 % 0 lf 1025,4 hPa 0,0 l/m 0,98 h 0,00 h 509 W/m 11,0 km/h (2 Bft) 96,18 %
16.03.2017 11:00 14,1 C 20,9 C 16,1 C 66 % 0 lf 1024,8 hPa 0,0 l/m 1,00 h 0,00 h 643 W/m 11,1 km/h (2 Bft) 93,73 %
16.03.2017 12:00 15,5 C 22,6 C 14,5 C 63 % 0 lf 1023,8 hPa 0,0 l/m 1,00 h 0,00 h 617 W/m 11,0 km/h (2 Bft) 98,08 %
16.03.2017 13:00 16,5 C 22,5 C 15,2 C 58 % 0 lf 1022,7 hPa 0,0 l/m 1,00 h 0,00 h 590 W/m 14,0 km/h (3 Bft) 95,94 %
16.03.2017 14:00 17,2 C 22,9 C 16,9 C 56 % 0 lf 1021,5 hPa 0,0 l/m 1,00 h 0,00 h 519 W/m 16,6 km/h (3 Bft) 93,13 %
16.03.2017 15:00 17,6 C 23,4 C 15,8 C 56 % 0 lf 1020,5 hPa 0,0 l/m 1,00 h 0,00 h 406 W/m 14,2 km/h (3 Bft) 97,65 %
16.03.2017 16:00 17,6 C 22,1 C 15,2 C 58 % 0 lf 1019,4 hPa 0,0 l/m 1,00 h 0,00 h 255 W/m 12,0 km/h (2 Bft) 95,24 %
16.03.2017 17:00 17,1 C 18,5 C 13,6 C 62 % 0 lf 1018,5 hPa 0,0 l/m 0,98 h 0,00 h 100 W/m 8,0 km/h (2 Bft) 96,03 %
16.03.2017 18:00 15,9 C 14,7 C 10,2 C 65 % 0 lf 1017,9 hPa 0,0 l/m 0,50 h 0,00 h 22 W/m 5,9 km/h (2 Bft) 95,66 %
16.03.2017 19:00 13,9 C 12,1 C 6,9 C 70 % 0 lf 1017,2 hPa 0,0 l/m 0,00 h 0,00 h 5 W/m 4,5 km/h (1 Bft) 95,08 %
16.03.2017 20:00 11,7 C 9,7 C 5,6 C 76 % 0 lf 1016,8 hPa 0,0 l/m 0,00 h 0,00 h 5 W/m 2,2 km/h (1 Bft) 96,30 %
16.03.2017 21:00 9,9 C 8,1 C 4,7 C 81 % 0 lf 1016,3 hPa 0,0 l/m 0,00 h 0,00 h 3 W/m 0,0 km/h (0 Bft) 93,96 %
16.03.2017 22:00 8,6 C 7,8 C 4,5 C 85 % 1 lf 1016,0 hPa 0,0 l/m 0,00 h 0,00 h 5 W/m 2,6 km/h (1 Bft) 93,96 %
16.03.2017 23:00 8,0 C 7,3 C 4,1 C 89 % 1 lf 1015,7 hPa 0,0 l/m 0,00 h 0,00 h 4 W/m 5,7 km/h (1 Bft) 94,16 %
17.03.2017 00:00 7,8 C 8,1 C 4,3 C 91 % 1 lf 1015,2 hPa 0,0 l/m 0,00 h 0,00 h 5 W/m 6,9 km/h (2 Bft) 97,02 %
17.03.2017 01:00 7,7 C 7,5 C 4,4 C 92 % 0 lf 1015,1 hPa 0,0 l/m 0,00 h 0,00 h 5 W/m 7,8 km/h (2 Bft) 95,80 %
17.03.2017 02:00 8,1 C 8,1 C 5,4 C 92 % 0 lf 1014,6 hPa 0,0 l/m 0,00 h 0,00 h 5 W/m 8,1 km/h (2 Bft) 94,38 %
17.03.2017 03:00 8,5 C 8,7 C 6,8 C 91 % 0 lf 1014,7 hPa 0,0 l/m 0,00 h 0,00 h 5 W/m 12,8 km/h (3 Bft) 96,37 %
17.03.2017 04:00 8,6 C 8,5 C 6,8 C 91 % 0 lf 1014,5 hPa 0,0 l/m 0,00 h 0,00 h 5 W/m 8,3 km/h (2 Bft) 94,23 %
17.03.2017 05:00 8,4 C 8,4 C 6,9 C 91 % 0 lf 1014,6 hPa 0,0 l/m 0,00 h 0,00 h 5 W/m 11,0 km/h (2 Bft) 96,87 %
17.03.2017 06:00 8,4 C 8,3 C 7,2 C 92 % 0 lf 1014,5 hPa 0,0 l/m 0,00 h 0,00 h 5 W/m 12,4 km/h (3 Bft) 96,51 %
17.03.2017 07:00 8,4 C 8,9 C 7,5 C 92 % 0 lf 1014,7 hPa 0,0 l/m 0,00 h 0,00 h 33 W/m 10,8 km/h (2 Bft) 85,39 %
17.03.2017 08:00 8,6 C 8,8 C 7,4 C 92 % 10 lf 1015,4 hPa 0,0 l/m 0,00 h 0,13 h 25 W/m 14,6 km/h (3 Bft) 88,90 %
17.03.2017 09:00 8,2 C 9,5 C 7,3 C 90 % 10 lf 1015,6 hPa 0,0 l/m 0,12 h 0,17 h 116 W/m 16,3 km/h (3 Bft) 91,24 %
17.03.2017 10:00 9,8 C 17,6 C 12,8 C 76 % 0 lf 1015,6 hPa 0,0 l/m 0,97 h 0,00 h 394 W/m 18,5 km/h (3 Bft) 93,29 %
17.03.2017 11:00 11,2 C 15,7 C 12,8 C 61 % 0 lf 1016,0 hPa 0,0 l/m 1,00 h 0,00 h 384 W/m 21,2 km/h (4 Bft) 96,43 %
17.03.2017 12:00 11,2 C 13,7 C 11,9 C 63 % 0 lf 1015,9 hPa 0,0 l/m 0,40 h 0,00 h 261 W/m 23,4 km/h (4 Bft) 92,02 %
17.03.2017 13:00 10,3 C 11,4 C 10,3 C 71 % 0 lf 1015,6 hPa 0,0 l/m 0,00 h 0,00 h 160 W/m 24,5 km/h (4 Bft) 86,97 %
17.03.2017 14:00 10,6 C 13,2 C 11,5 C 66 % 0 lf 1015,1 hPa 0,0 l/m 0,40 h 0,00 h 258 W/m 24,8 km/h (4 Bft) 93,73 %
17.03.2017 15:00 10,6 C 12,5 C 10,7 C 63 % 0 lf 1014,7 hPa 0,0 l/m 0,20 h 0,00 h 195 W/m 22,9 km/h (4 Bft) 97,81 %
17.03.2017 16:00 10,7 C 12,8 C 10,9 C 61 % 0 lf 1014,2 hPa 0,0 l/m 0,70 h 0,00 h 190 W/m 22,4 km/h (4 Bft) 93,42 %
17.03.2017 17:00 10,1 C 10,6 C 9,0 C 55 % 0 lf 1013,7 hPa 0,0 l/m 0,00 h 0,00 h 76 W/m 17,9 km/h (3 Bft) 95,09 %
17.03.2017 18:00 9,5 C 9,4 C 7,7 C 59 % 0 lf 1013,3 hPa 0,0 l/m 0,00 h 0,00 h 18 W/m 13,2 km/h (3 Bft) 95,87 %
17.03.2017 19:00 8,5 C 8,0 C 6,2 C 64 % 0 lf 1012,7 hPa 0,0 l/m 0,00 h 0,00 h 4 W/m 12,6 km/h (3 Bft) 93,77 %
17.03.2017 20:00 8,3 C 8,3 C 6,7 C 65 % 0 lf 1011,8 hPa 0,0 l/m 0,00 h 0,00 h 0 W/m 10,1 km/h (2 Bft) 96,40 %
17.03.2017 21:00 8,5 C 8,7 C 7,1 C 66 % 0 lf 1010,9 hPa 0,0 l/m 0,00 h 0,00 h 0 W/m 17,0 km/h (3 Bft) 86,51 %
17.03.2017 22:00 8,8 C 8,9 C 7,4 C 64 % 0 lf 1009,7 hPa 0,0 l/m 0,00 h 0,00 h 0 W/m 29,8 km/h (5 Bft) 90,78 %
17.03.2017 23:00 8,0 C 7,4 C 5,8 C 69 % 8 lf 1008,8 hPa 0,0 l/m 0,00 h 0,57 h 0 W/m 37,2 km/h (5 Bft) 93,79 %
18.03.2017 00:00 6,4 C 5,2 C 3,9 C 85 % 15 lf 1007,8 hPa 1,2 l/m 0,00 h 0,97 h 0 W/m 29,8 km/h (5 Bft) 94,92 %
18.03.2017 01:00 6,1 C 5,6 C 4,4 C 91 % 15 lf 1006,5 hPa 0,6 l/m 0,00 h 0,87 h 0 W/m 36,8 km/h (5 Bft) 94,66 %
18.03.2017 02:00 6,0 C 5,6 C 4,4 C 93 % 15 lf 1005,0 hPa 0,2 l/m 0,00 h 0,53 h 0 W/m 38,7 km/h (5 Bft) 97,15 %
18.03.2017 03:00 6,3 C 6,1 C 4,9 C 95 % 15 lf 1004,3 hPa 0,4 l/m 0,00 h 0,97 h 0 W/m 43,7 km/h (6 Bft) 95,04 %
18.03.2017 04:00 6,7 C 6,6 C 5,2 C 96 % 15 lf 1003,7 hPa 0,2 l/m 0,00 h 0,97 h 0 W/m 41,4 km/h (6 Bft) 97,49 %
18.03.2017 05:00 7,1 C 6,9 C 5,6 C 96 % 15 lf 1003,4 hPa 0,0 l/m 0,00 h 0,97 h 0 W/m 39,1 km/h (6 Bft) 94,12 %
18.03.2017 06:00 7,5 C 7,3 C 6,1 C 97 % 15 lf 1003,7 hPa 0,6 l/m 0,00 h 1,00 h 5 W/m 36,7 km/h (5 Bft) 95,71 %
18.03.2017 07:00 8,0 C 7,9 C 6,8 C 97 % 15 lf 1004,2 hPa 1,0 l/m 0,00 h 1,00 h 15 W/m 33,8 km/h (5 Bft) 96,93 %
18.03.2017 08:00 8,6 C 8,5 C 7,3 C 98 % 15 lf 1004,6 hPa 0,6 l/m 0,00 h 1,00 h 31 W/m 32,9 km/h (5 Bft) 96,92 %
18.03.2017 09:00 9,2 C 9,3 C 8,0 C 98 % 15 lf 1005,1 hPa 0,2 l/m 0,00 h 1,00 h 45 W/m 25,0 km/h (4 Bft) 93,53 %
18.03.2017 10:00 9,9 C 10,0 C 8,8 C 98 % 15 lf 1005,5 hPa 0,2 l/m 0,00 h 1,00 h 68 W/m 23,4 km/h (4 Bft) 97,33 %
18.03.2017 11:00 10,4 C 10,7 C 9,5 C 98 % 15 lf 1005,8 hPa 0,0 l/m 0,00 h 0,98 h 89 W/m 21,9 km/h (4 Bft) 95,47 %
18.03.2017 12:00 10,9 C 11,2 C 10,1 C 98 % 15 lf 1006,0 hPa 0,0 l/m 0,00 h 0,77 h 94 W/m 23,4 km/h (4 Bft) 96,94 %
18.03.2017 13:00 11,7 C 12,5 C 11,2 C 98 % 14 lf 1006,1 hPa 0,2 l/m 0,00 h 0,63 h 183 W/m 26,0 km/h (4 Bft) 94,81 %
18.03.2017 14:00 11,7 C 12,1 C 10,9 C 97 % 15 lf 1006,4 hPa 0,2 l/m 0,03 h 0,10 h 139 W/m 25,8 km/h (4 Bft) 95,93 %
18.03.2017 15:00 11,9 C 11,7 C 10,4 C 96 % 15 lf 1006,7 hPa 1,0 l/m 0,00 h 0,83 h 60 W/m 20,7 km/h (4 Bft) 95,66 %
18.03.2017 16:00 11,3 C 11,1 C 10,0 C 96 % 15 lf 1006,8 hPa 1,0 l/m 0,00 h 1,00 h 64 W/m 19,6 km/h (3 Bft) 97,61 %
18.03.2017 17:00 11,3 C 11,0 C 9,8 C 97 % 15 lf 1007,1 hPa 0,8 l/m 0,00 h 0,95 h 34 W/m 19,3 km/h (3 Bft) 95,02 %
18.03.2017 18:00 11,0 C 10,6 C 9,3 C 97 % 15 lf 1007,6 hPa 0,8 l/m 0,00 h 0,97 h 6 W/m 16,9 km/h (3 Bft) 96,48 %
18.03.2017 19:00 10,6 C 10,3 C 8,9 C 97 % 15 lf 1008,4 hPa 1,4 l/m 0,00 h 0,88 h 0 W/m 11,7 km/h (2 Bft) 97,60 %
18.03.2017 20:00 10,2 C 10,0 C 8,9 C 98 % 15 lf 1008,7 hPa 0,0 l/m 0,00 h 0,33 h 0 W/m 10,3 km/h (2 Bft) 97,13 %
18.03.2017 21:00 10,1 C 10,0 C 8,9 C 98 % 15 lf 1009,0 hPa 0,2 l/m 0,00 h 0,20 h 0 W/m 8,3 km/h (2 Bft) 94,52 %
18.03.2017 22:00 10,0 C 10,0 C 8,8 C 98 % 15 lf 1009,3 hPa 1,0 l/m 0,00 h 0,98 h 0 W/m 6,0 km/h (2 Bft) 96,05 %
18.03.2017 23:00 9,8 C 9,6 C 8,3 C 98 % 15 lf 1009,5 hPa 1,2 l/m 0,00 h 1,00 h 0 W/m 6,9 km/h (2 Bft) 98,01 %
19.03.2017 00:00 9,6 C 9,4 C 8,3 C 98 % 15 lf 1009,1 hPa 0,8 l/m 0,00 h 0,93 h 0 W/m 9,7 km/h (2 Bft) 94,49 %
19.03.2017 01:00 9,6 C 9,4 C 8,3 C 99 % 15 lf 1009,1 hPa 0,6 l/m 0,00 h 0,57 h 0 W/m 11,5 km/h (2 Bft) 94,61 %
19.03.2017 02:00 9,5 C 9,4 C 8,3 C 99 % 15 lf 1008,9 hPa 0,2 l/m 0,00 h 0,10 h 0 W/m 11,1 km/h (2 Bft) 96,51 %
19.03.2017 03:00 9,8 C 9,9 C 8,7 C 99 % 15 lf 1008,6 hPa 0,2 l/m 0,00 h 0,20 h 0 W/m 15,5 km/h (3 Bft) 97,30 %
19.03.2017 04:00 10,5 C 10,6 C 9,3 C 99 % 15 lf 1008,4 hPa 0,2 l/m 0,00 h 0,23 h 0 W/m 20,9 km/h (4 Bft) 94,76 %
19.03.2017 05:00 10,6 C 10,6 C 9,4 C 99 % 15 lf 1008,2 hPa 0,0 l/m 0,00 h 0,53 h 0 W/m 23,3 km/h (4 Bft) 96,22 %
19.03.2017 06:00 10,6 C 10,6 C 9,4 C 99 % 15 lf 1008,2 hPa 0,0 l/m 0,00 h 0,72 h 5 W/m 26,3 km/h (4 Bft) 96,14 %
19.03.2017 07:00 10,4 C 10,6 C 9,4 C 99 % 15 lf 1007,9 hPa 0,2 l/m 0,00 h 0,70 h 15 W/m 31,2 km/h (5 Bft) 96,79 %
19.03.2017 08:00 10,6 C 10,6 C 9,4 C 99 % 15 lf 1007,9 hPa 0,0 l/m 0,00 h 0,33 h 35 W/m 35,7 km/h (5 Bft) 94,99 %
19.03.2017 09:00 10,7 C 10,8 C 9,6 C 99 % 11 lf 1008,0 hPa 0,0 l/m 0,00 h 0,17 h 54 W/m 36,7 km/h (5 Bft) 94,75 %
19.03.2017 10:00 11,0 C 11,4 C 10,3 C 98 % 0 lf 1008,1 hPa 0,0 l/m 0,00 h 0,00 h 88 W/m 33,2 km/h (5 Bft) 97,13 %
19.03.2017 11:00 11,5 C 12,5 C 11,1 C 96 % 0 lf 1007,8 hPa 0,0 l/m 0,00 h 0,00 h 141 W/m 35,2 km/h (5 Bft) 97,08 %
19.03.2017 12:00 11,8 C 12,5 C 11,2 C 94 % 0 lf 1007,5 hPa 0,0 l/m 0,00 h 0,07 h 98 W/m 35,6 km/h (5 Bft) 93,46 %
19.03.2017 13:00 12,2 C 13,5 C 12,0 C 92 % 1 lf 1007,4 hPa 0,0 l/m 0,03 h 0,17 h 184 W/m 35,6 km/h (5 Bft) 96,59 %
19.03.2017 14:00 12,8 C 14,4 C 12,9 C 86 % 0 lf 1007,0 hPa 0,0 l/m 0,30 h 0,00 h 208 W/m 37,7 km/h (5 Bft) 96,98 %
19.03.2017 15:00 12,7 C 13,9 C 12,4 C 80 % 0 lf 1007,0 hPa 0,0 l/m 0,00 h 0,00 h 168 W/m 36,2 km/h (5 Bft) 94,52 %
19.03.2017 16:00 12,8 C 13,8 C 12,1 C 79 % 0 lf 1007,0 hPa 0,0 l/m 0,00 h 0,00 h 115 W/m 34,7 km/h (5 Bft) 95,73 %
19.03.2017 17:00 12,5 C 12,9 C 11,3 C 78 % 0 lf 1007,1 hPa 0,0 l/m 0,00 h 0,00 h 44 W/m 36,2 km/h (5 Bft) 96,22 %
19.03.2017 18:00 12,2 C 12,4 C 10,7 C 78 % 0 lf 1007,5 hPa 0,0 l/m 0,00 h 0,00 h 12 W/m 38,0 km/h (5 Bft) 96,50 %
19.03.2017 19:00 11,8 C 12,1 C 10,3 C 77 % 0 lf 1007,8 hPa 0,0 l/m 0,00 h 0,00 h 0 W/m 33,9 km/h (5 Bft) 95,64 %
19.03.2017 20:00 11,6 C 11,7 C 10,0 C 80 % 0 lf 1007,9 hPa 0,0 l/m 0,00 h 0,00 h 0 W/m 25,7 km/h (4 Bft) 95,79 %
19.03.2017 21:00 11,4 C 11,7 C 10,0 C 81 % 0 lf 1008,0 hPa 0,0 l/m 0,00 h 0,00 h 0 W/m 27,7 km/h (4 Bft) 95,27 %
19.03.2017 22:00 11,3 C 11,5 C 9,8 C 83 % 0 lf 1008,2 hPa 0,0 l/m 0,00 h 0,00 h 0 W/m 30,0 km/h (5 Bft) 98,39 %
19.03.2017 23:00 10,6 C 10,4 C 8,8 C 88 % 2 lf 1008,5 hPa 0,0 l/m 0,00 h 0,03 h 0 W/m 26,4 km/h (4 Bft) 94,07 %
Min-Datum _ 16.03.17 16.03.17 16.03.17 17.03.17 13.03.17 18.03.17 - - - - 14.03.17 13.03.17
_ Min-Zeit 06:44 04:54 05:14 16:56 00:00 05:50 - - - - 01:04 00:02
Minimum _ 1,9 C 1,1 C -0,6 C 52 % 0 lf 1003,1 hPa - - - - 0,0 km/h (0 Bft) 4,76 %
Max-Datum _ 16.03.17 15.03.17 16.03.17 19.03.17 16.03.17 15.03.17 18.03.17 13.03.17 17.03.17 13.03.17 18.03.17 13.03.17
_ Max-Zeit 16:04 13:24 14:34 01:26 04:16 12:02 19:05 07:04 08:22 11:42 03:32 00:06
Maximum _ 17,8 C 27,2 C 20,0 C 99 % 15 lf 1031,7 hPa 1,4 l/m 0,03 h 0,03 h 797 W/m 60,7 km/h
W-SW (7 Bft)
100,00 %
Durchschnitt _ 9,9 C 11,1 C 8,4 C 82 % 4 lf 1019,4 hPa #15,2 l/m #40:52 h #25:39 h 157 W/m 15,6 km/h (3 Bft) 95,41 %
© 2017 W. Hausmann